This is the latest recevied weather packets stored in our database for station/object WAYLND-WX. If no packets are shown the sender has not sent any weather packets the latest 1 day(s).
| Time | Temp. | Humidity | Pressure | Rain* | Wind** | Luminosity | Snow |
|---|---|---|---|---|---|---|---|
| 1777969862 | 11.11° C | 79% | 973.8 hPa | 0 mm | 4.02 m/s, 271° | - | - |
| 1777968943 | 11.11° C | 79% | 973.8 hPa | 0 mm | 3.58 m/s, 264° | - | - |
| 1777968075 | 11.11° C | 65% | 974 hPa | 0 mm | 3.58 m/s, 256° | - | - |
| 1777967144 | 11.67° C | 77% | 973.2 hPa | 0 mm | 4.02 m/s, 254° | - | - |
| 1777966264 | 12.22° C | 77% | 973.2 hPa | 0 mm | 3.58 m/s, 252° | - | - |
| 1777965344 | 12.78° C | 77% | 973.3 hPa | 0 mm | 4.47 m/s, 248° | - | - |
| 1777964477 | 12.78° C | 77% | 973.3 hPa | 0 mm | 4.02 m/s, 242° | - | - |
| 1777963543 | 12.78° C | 74% | 973.5 hPa | 0 mm | 4.02 m/s, 245° | - | - |
| 1777962660 | 13.33° C | 77% | 973.1 hPa | 0 mm | 4.47 m/s, 239° | - | - |
| 1777961744 | 13.33° C | 77% | 973.1 hPa | 0 mm | 4.92 m/s, 241° | - | - |
| 1777960887 | 13.89° C | 77% | 973.1 hPa | 0 mm | 5.36 m/s, 243° | - | - |
| 1777959944 | 13.89° C | 74% | 974.2 hPa | 0 mm | 5.81 m/s, 237° | - | - |
| 1777959067 | 14.44° C | 66% | 972.8 hPa | 0 mm | 4.02 m/s, 245° | - | - |
| 1777958143 | 15° C | 66% | 972.8 hPa | 0 mm | 4.47 m/s, 250° | - | - |
| 1777957275 | 15° C | 66% | 972.8 hPa | 0 mm | 4.47 m/s, 242° | - | - |
| 1777956343 | 15.56° C | 68% | 972.4 hPa | 0 mm | 4.47 m/s, 240° | - | - |
| 1777955466 | 15.56° C | 61% | 972.4 hPa | 0 mm | 4.02 m/s, 242° | - | - |
| 1777954543 | 16.11° C | 61% | 972.7 hPa | 0 mm | 4.92 m/s, 207° | - | - |
| 1777953680 | 16.67° C | 61% | 972.7 hPa | 0 mm | 5.81 m/s, 221° | - | - |
| 1777952740 | 16.67° C | 62% | 972.6 hPa | 0 mm | 6.71 m/s, 226° | - | - |
* Rain latest hour (hover to see other rain measurements)
** Current wind speed in m/s (hover to see current wind gust speed)